Roscoe, PA (15477)

6:12 PM EST on January 28, 2015 (GMT -0500)
Belle Vernon | Change Station
CLOSE
Current Station
Personal Weather Station
Location: Belle Vernon, PA
Elevation: 996 ft
Nearby Weather Stations

Elev 996 ft 40.12 °N, 79.85 °W | Updated 8 seconds ago

Clear
Clear
20.4 °F
Feels Like 20 °F
N
0.0
Wind Variable Wind from SW
Gusts 0.0 mph

Today
High -- | Low -- °F
--% Chance of Precip.
Yesterday
High -- | Low -- °F
Precip. -- in
7:31 AM 5:33 PM
Waxing Gibbous, 68% visible
Pressure 30.38 in
Visibility 10.0 miles
Clouds Clear
Windchill 20 °F
Dew Point 12 °F
Humidity 69%
Rainfall 0.02 in
Snow Depth Not available.
UV 0 out of 12
Pollen .10 out of 12
Air Quality Not available.
Flu Activity Not available.
METAR KAGC 282253Z AUTO 27003KT 10SM CLR M07/M16 A3029 RMK AO2 SLP286 T10671156 TSNO

More Conditions Fewer Conditions

Pressure 30.38 in
Visibility 10.0 miles
Clouds Clear
Windchill 20 °F
Dew Point 12 °F
Humidity 69%
Rainfall 0.02 in
Snow Depth Not available.
UV 0 out of 12
Pollen .10 out of 12
Air Quality Not available.
Flu Activity Not available.
METAR KAGC 282253Z AUTO 27003KT 10SM CLR M07/M16 A3029 RMK AO2 SLP286 T10671156 TSNO

More Conditions Fewer Conditions

10-Day Weather Forecast

Almanac

Astronomy

Jan. 28, 2015 Rise Set
Actual Time
Civil Twilight
Nautical Twilight
Astronomical Twilight
Moon
Length of Visible Light
Length of Day
Tomorrow will be .
, % of the Moon is Illuminated

Today's Extremes

State Highs State Lows

Community

WunderPhotos

Upload Photos

1,791,292 photos uploaded!

WunderBlogs® & News

Nearby

Air Quality

  Air Quality AQ Index Pollutant
Not available.

Snow Depth

Station Depth Elevation

Earthquake Activity

City Distance Mag. Time & Date
Minimum magnitude displayed is 2.5.

Coastal Water Temperatures

Place Temperature

Nearby Weather Stations